Brkston, Minnesota
Current Conditions -  °F | °C
As of 6:52 AM on Tuesday 21 Oct 2014 (Local Time) from KCOQ Reporting Station
Overcast Overcast  
Wind Chill: 40°   Ceiling: 2400
Heat Index: 43°   Visibility: 10mi
Dew Point: 37°   Wind: 5mph
Humidity: 81%   Direction: 100°E
Pressure: 30.19"   Gusts: NA
Location:  46.8211°N, 92.6871°W
Report Text: KCOQ 211152Z AUTO 10004KT 10SM OVC024 06/03 A3019 RMK AO2
Loading
Personal Weather Stations






























Interactive Weather Map
Tropical Storm Tracking
New forecast layout! Learn more

10-Day Weather Forecast

Advertisements
Track Severe Weather on mobile